Grandin, North Dakota
Current Conditions -  °F | °C
As of 4:53 AM on Wednesday 22 Oct 2014 (Local Time) from KFAR Reporting Station
Scattered Clouds Scattered Clouds  
Wind Chill: 56°   Ceiling: Unl
Heat Index: 56°   Visibility: 10mi
Dew Point: 41°   Wind: 25mph
Humidity: 57%   Direction: 150°SSE
Pressure: 29.86"   Gusts: 38mph
Location:  47.24°N, 97°W
Report Text: KFAR 220953Z 15022G33KT 10SM SCT090 13/05 A2986 RMK AO2 PK WND 14034/0936 SLP111 T01330050
Loading
Personal Weather Stations






























Interactive Weather Map
Tropical Storm Tracking
New forecast layout! Learn more

10-Day Weather Forecast

Advertisements
Track Severe Weather on mobile